Other Surface Observations
Issued by NWS Great Falls, MT

Home | Current Version | Previous Version | Text Only | Print | Product List | Glossary On
Versions: 1 2 3 4 5 6 7 8 9 10 11 12 13 14 15 16 17 18 19 20 21 22 23 24 25 26 27 28 29 30 31 32 33 34 35 36 37 38 39 40 41 42 43 44 45 46 47 48 49 50
136
SXUS55 KTFX 080314
OSOTFX
AREA AWOS OBSERVATIONS
NATIONAL WEATHER SERVICE GREAT FALLS MT
0814 PM MST SUN FEB 07 2016

METAR KPWD 080315Z AUTO 31012KT 10SM M03/M07 A3031 RMK PLENTYWOOD
METAR KPO1 080315Z AUTO 31010KT 10SM M02/M08 A3037 RMK POPLAR
METAR K1S3 080315Z AUTO 00000KT 10SM M02/M09 A3044 RMK FORSYTH
METAR KS71 080315Z AUTO 00000KT 10SM M06/M11 A3045 RMK CHINOOK
METAR K38S 080315Z AUTO 00000KT 10SM 00/M07 A3056 RMK DEER LODGE
METAR K3U3 080315Z AUTO 00000KT 10SM M03/M08 A3055 RMK ANACONDA
METAR K6S5 080315Z AUTO 00000KT 10SM 02/M04 A3059 RMK HAMILTON
METAR KS59 080315Z AUTO 00000KT 10SM 02/M03 A3064 RMK LIBBY



USA.gov is the U.S. government's official web portal to all federal, state and local government web resources and services.